Mary Ann Moran — WDF4572 — position and weather

sailwx.info

Track history (hours):
 
Tides and Currents Weather Stations Pressure Air Temp Water Temp Dewpoint Dewpoint Depression Visibility Wind Speed Wind Dir Waves Ship Positions

Mary Ann Moran

Owner: MORAN TOWING CORPORATION, NEW CANAAN, CT. More information available from US FCC via Universal Licensing System and Coast Guard Vessel Documentation Center.

Last reported at 2017-Jul-22 23:07 UTC. Time now 2017-Jul-24 06:37 UTC.
Position N 18°30' W 065°57'.

Length 188 m; draft 5 m.

Type: . MMSI: 367453420.

Date/timePositionNaut miles runAvg speedWind from/ knotsBaromVisibWave heightAir tempDewpointWater temp
2017-Jul-22 23:07N 18°30' W 065°57'1 9.9
2017-Jul-22 23:00N 18°30' W 065°58'5 9.9
2017-Jul-22 22:31N 18°30' W 066°03'4 8.1
2017-Jul-22 22:00N 18°29' W 066°08'3 6.2
2017-Jul-22 21:28N 18°26' W 066°07'0 0.0
2017-Jul-22 18:34N 18°26' W 066°07'0 0.1
2017-Jul-22 18:10N 18°26' W 066°07'0 0.0
2017-Jul-22 11:07N 18°26' W 066°07'0 0.0
2017-Jul-22 10:31N 18°26' W 066°07'0 0.0
2017-Jul-22 00:16N 18°26' W 066°07'0 0.0
2017-Jul-21 23:49N 18°26' W 066°07'0 0.0
2017-Jul-21 13:22N 18°26' W 066°07'0 0.0
2017-Jul-21 12:58N 18°26' W 066°07'0 0.0
2017-Jul-21 12:25N 18°26' W 066°07'0 0.0
2017-Jul-21 11:58N 18°26' W 066°07'0 0.0
2017-Jul-21 11:25N 18°26' W 066°07'0 0.0
2017-Jul-21 10:58N 18°26' W 066°07'0 0.0
2017-Jul-21 10:28N 18°26' W 066°07'0 0.0
2017-Jul-21 09:58N 18°26' W 066°07'0 0.0
2017-Jul-21 09:28N 18°26' W 066°07'0 0.0
2017-Jul-21 08:58N 18°26' W 066°07'0 0.0
2017-Jul-21 08:07N 18°26' W 066°07'0 0.0
2017-Jul-21 07:43N 18°26' W 066°07'0 0.0
2017-Jul-21 07:19N 18°26' W 066°07'0 0.0
2017-Jul-21 06:25N 18°26' W 066°07'0 0.0
2017-Jul-21 05:55N 18°26' W 066°07'0 0.0
2017-Jul-21 05:28N 18°26' W 066°07'0 0.0
2017-Jul-21 04:43N 18°26' W 066°07'0 0.0
2017-Jul-21 04:19N 18°26' W 066°07'0 0.0
2017-Jul-21 03:43N 18°26' W 066°07'0 0.0
2017-Jul-21 03:25N 18°26' W 066°07'0 0.0
2017-Jul-21 02:55N 18°26' W 066°07'0 0.0
2017-Jul-21 02:25N 18°26' W 066°07'0 0.0
2017-Jul-21 01:58N 18°26' W 066°07'0 0.0
2017-Jul-21 01:28N 18°26' W 066°07'0 0.0
2017-Jul-21 00:58N 18°26' W 066°07'0 0.0
2017-Jul-21 00:22N 18°26' W 066°07'0 0.0
2017-Jul-20 23:55N 18°26' W 066°07'0 0.0
2017-Jul-20 23:28N 18°26' W 066°07'0 0.0
2017-Jul-20 22:55N 18°26' W 066°07'0 0.0
2017-Jul-20 22:28N 18°26' W 066°07'0 0.0
2017-Jul-20 20:52N 18°26' W 066°07'0 0.1
2017-Jul-20 20:05N 18°26' W 066°07'0 2.3
2017-Jul-20 20:00N 18°26' W 066°07'0 0.0
2017-Jul-20 16:42N 18°26' W 066°07'0 0.0
2017-Jul-20 16:18N 18°26' W 066°07'0 0.0
2017-Jul-20 15:54N 18°26' W 066°07'0 0.0
2017-Jul-20 15:18N 18°26' W 066°07'0 0.0
2017-Jul-20 14:48N 18°26' W 066°07'0 0.0
2017-Jul-20 14:00N 18°26' W 066°07'0 0.0
2017-Jul-20 13:30N 18°26' W 066°07'0 0.0
2017-Jul-20 07:36N 18°26' W 066°07'0 0.1
2017-Jul-20 05:54N 18°26' W 066°07'0 0.0
2017-Jul-20 05:03N 18°26' W 066°07'0 0.0
2017-Jul-20 04:21N 18°26' W 066°07'0 0.0
2017-Jul-18 04:39N 18°26' W 066°07'0 0.1
2017-Jul-18 04:29N 18°26' W 066°07'1 3.0
2017-Jul-18 04:00N 18°27' W 066°07'4 7.3
2017-Jul-18 03:31N 18°31' W 066°07'5 9.3
2017-Jul-18 03:00N 18°32' W 066°12'  
Track history (hours):
 
Tides and Currents Weather Stations Pressure Air Temp Water Temp Dewpoint Dewpoint Depression Visibility Wind Speed Wind Dir Waves Ship Positions

Mary Ann Moran

Owner: MORAN TOWING CORPORATION, NEW CANAAN, CT. More information available from US FCC via Universal Licensing System and Coast Guard Vessel Documentation Center.

Last reported at 2017-Jul-22 23:07 UTC. Time now 2017-Jul-24 06:37 UTC.
Position N 18°30' W 065°57'.

Length 188 m; draft 5 m.

Type: . MMSI: 367453420.

Date/timePositionNaut miles runAvg speedWind from/ knotsBaromVisibWave heightAir tempDewpointWater temp
2017-Jul-22 23:07N 18°30' W 065°57'1 9.9
2017-Jul-22 23:00N 18°30' W 065°58'5 9.9
2017-Jul-22 22:31N 18°30' W 066°03'4 8.1
2017-Jul-22 22:00N 18°29' W 066°08'3 6.2
2017-Jul-22 21:28N 18°26' W 066°07'0 0.0
2017-Jul-22 18:34N 18°26' W 066°07'0 0.1
2017-Jul-22 18:10N 18°26' W 066°07'0 0.0
2017-Jul-22 11:07N 18°26' W 066°07'0 0.0
2017-Jul-22 10:31N 18°26' W 066°07'0 0.0
2017-Jul-22 00:16N 18°26' W 066°07'0 0.0
2017-Jul-21 23:49N 18°26' W 066°07'0 0.0
2017-Jul-21 13:22N 18°26' W 066°07'0 0.0
2017-Jul-21 12:58N 18°26' W 066°07'0 0.0
2017-Jul-21 12:25N 18°26' W 066°07'0 0.0
2017-Jul-21 11:58N 18°26' W 066°07'0 0.0
2017-Jul-21 11:25N 18°26' W 066°07'0 0.0
2017-Jul-21 10:58N 18°26' W 066°07'0 0.0
2017-Jul-21 10:28N 18°26' W 066°07'0 0.0
2017-Jul-21 09:58N 18°26' W 066°07'0 0.0
2017-Jul-21 09:28N 18°26' W 066°07'0 0.0
2017-Jul-21 08:58N 18°26' W 066°07'0 0.0
2017-Jul-21 08:07N 18°26' W 066°07'0 0.0
2017-Jul-21 07:43N 18°26' W 066°07'0 0.0
2017-Jul-21 07:19N 18°26' W 066°07'0 0.0
2017-Jul-21 06:25N 18°26' W 066°07'0 0.0
2017-Jul-21 05:55N 18°26' W 066°07'0 0.0
2017-Jul-21 05:28N 18°26' W 066°07'0 0.0
2017-Jul-21 04:43N 18°26' W 066°07'0 0.0
2017-Jul-21 04:19N 18°26' W 066°07'0 0.0
2017-Jul-21 03:43N 18°26' W 066°07'0 0.0
2017-Jul-21 03:25N 18°26' W 066°07'0 0.0
2017-Jul-21 02:55N 18°26' W 066°07'0 0.0
2017-Jul-21 02:25N 18°26' W 066°07'0 0.0
2017-Jul-21 01:58N 18°26' W 066°07'0 0.0
2017-Jul-21 01:28N 18°26' W 066°07'0 0.0
2017-Jul-21 00:58N 18°26' W 066°07'0 0.0
2017-Jul-21 00:22N 18°26' W 066°07'0 0.0
2017-Jul-20 23:55N 18°26' W 066°07'0 0.0
2017-Jul-20 23:28N 18°26' W 066°07'0 0.0
2017-Jul-20 22:55N 18°26' W 066°07'0 0.0
2017-Jul-20 22:28N 18°26' W 066°07'0 0.0
2017-Jul-20 20:52N 18°26' W 066°07'0 0.1
2017-Jul-20 20:05N 18°26' W 066°07'0 2.3
2017-Jul-20 20:00N 18°26' W 066°07'0 0.0
2017-Jul-20 16:42N 18°26' W 066°07'0 0.0
2017-Jul-20 16:18N 18°26' W 066°07'0 0.0
2017-Jul-20 15:54N 18°26' W 066°07'0 0.0
2017-Jul-20 15:18N 18°26' W 066°07'0 0.0
2017-Jul-20 14:48N 18°26' W 066°07'0 0.0
2017-Jul-20 14:00N 18°26' W 066°07'0 0.0
2017-Jul-20 13:30N 18°26' W 066°07'0 0.0
2017-Jul-20 07:36N 18°26' W 066°07'0 0.1
2017-Jul-20 05:54N 18°26' W 066°07'0 0.0
2017-Jul-20 05:03N 18°26' W 066°07'0 0.0
2017-Jul-20 04:21N 18°26' W 066°07'0 0.0
2017-Jul-18 04:39N 18°26' W 066°07'0 0.1
2017-Jul-18 04:29N 18°26' W 066°07'1 3.0
2017-Jul-18 04:00N 18°27' W 066°07'4 7.3
2017-Jul-18 03:31N 18°31' W 066°07'5 9.3
2017-Jul-18 03:00N 18°32' W 066°12'  

Dump ship's entire track history